createdAt,value
2022-07-30T00:00:24.853Z,7.32
2022-07-30T00:02:53.147Z,5.35
2022-07-30T00:05:20.858Z,6.50
2022-07-30T00:07:47.600Z,8.95
2022-07-30T00:10:14.458Z,8.50
2022-07-30T00:12:41.487Z,5.80
2022-07-30T00:15:09.117Z,4.82
2022-07-30T00:17:35.949Z,5.07
2022-07-30T00:20:03.308Z,5.95
2022-07-30T00:22:31.339Z,11.10
2022-07-30T00:24:58.584Z,6.50
2022-07-30T00:27:25.326Z,5.95
2022-07-30T00:29:51.991Z,8.25
2022-07-30T00:32:18.693Z,7.22
2022-07-30T00:34:46.062Z,4.65
2022-07-30T00:37:12.794Z,6.63
2022-07-30T00:39:39.490Z,8.43
2022-07-30T00:42:06.214Z,4.60
2022-07-30T00:44:32.896Z,4.80
2022-07-30T00:46:59.858Z,4.03
2022-07-30T00:49:27.003Z,10.00
2022-07-30T00:51:54.049Z,11.13
2022-07-30T00:54:21.479Z,10.35
2022-07-30T00:56:48.924Z,6.05
2022-07-30T00:59:16.336Z,6.95
2022-07-30T01:01:43.253Z,4.97
2022-07-30T01:04:13.928Z,4.60
2022-07-30T01:06:40.770Z,3.05
2022-07-30T01:09:08.331Z,10.13
2022-07-30T01:11:41.351Z,4.75
2022-07-30T01:14:09.492Z,7.63
2022-07-30T01:16:38.401Z,6.43
2022-07-30T01:19:28.391Z,8.73
2022-07-30T01:22:09.800Z,6.43
2022-07-30T01:24:40.980Z,5.15
2022-07-30T01:27:09.378Z,5.55
2022-07-30T01:29:37.918Z,5.10
2022-07-30T01:32:08.870Z,6.85
2022-07-30T01:34:39.169Z,6.25
2022-07-30T01:37:10.072Z,6.93
2022-07-30T01:39:38.500Z,8.57
2022-07-30T01:42:08.462Z,9.68
2022-07-30T01:44:37.579Z,7.22
2022-07-30T01:47:05.513Z,5.25
2022-07-30T01:49:35.582Z,8.20
2022-07-30T01:54:31.874Z,6.03
2022-07-30T01:57:01.756Z,7.65
2022-07-30T01:59:31.820Z,9.38
2022-07-30T02:01:59.483Z,6.25
2022-07-30T02:04:27.336Z,11.52
2022-07-30T02:07:35.209Z,7.53
2022-07-30T02:10:05.887Z,8.35
2022-07-30T02:12:42.952Z,6.88
2022-07-30T02:15:31.352Z,7.90
2022-07-30T02:18:07.874Z,5.57
2022-07-30T02:20:35.605Z,7.18
2022-07-30T02:23:07.495Z,4.20
2022-07-30T02:25:38.557Z,5.50
2022-07-30T02:28:10.060Z,7.72
2022-07-30T02:30:40.431Z,6.47
2022-07-30T02:33:13.071Z,6.03
2022-07-30T02:35:41.202Z,11.13
2022-07-30T02:38:11.930Z,4.07
2022-07-30T02:40:41.950Z,4.43
2022-07-30T02:43:09.124Z,3.80
2022-07-30T02:45:38.035Z,7.28
2022-07-30T02:48:08.953Z,5.68
2022-07-30T02:50:39.502Z,5.32
2022-07-30T02:53:10.861Z,4.55
2022-07-30T02:55:39.826Z,6.93
2022-07-30T02:58:07.408Z,8.68
2022-07-30T03:00:35.561Z,5.13
2022-07-30T03:03:06.056Z,9.35
2022-07-30T03:05:33.573Z,6.07
2022-07-30T03:08:01.622Z,13.40
2022-07-30T03:10:29.180Z,5.18
2022-07-30T03:12:58.368Z,6.47
2022-07-30T03:15:26.833Z,5.65
2022-07-30T03:22:55.064Z,5.07
2022-07-30T03:25:27.328Z,7.65
2022-07-30T03:27:55.660Z,5.30
2022-07-30T03:30:23.917Z,3.70
2022-07-30T03:32:53.366Z,8.25
2022-07-30T03:35:22.070Z,8.02
2022-07-30T03:37:49.535Z,6.47
2022-07-30T03:40:17.896Z,4.43
2022-07-30T03:42:47.914Z,9.50
2022-07-30T03:45:19.121Z,16.80
2022-07-30T03:47:46.529Z,17.23
2022-07-30T03:50:14.193Z,5.18
2022-07-30T03:52:42.148Z,9.68
2022-07-30T03:55:13.683Z,5.97
2022-07-30T03:57:49.691Z,4.25
2022-07-30T04:00:18.206Z,6.18
2022-07-30T04:02:50.293Z,7.10
2022-07-30T04:05:17.194Z,4.78
2022-07-30T04:07:47.017Z,10.75
2022-07-30T04:10:16.869Z,10.05
2022-07-30T04:12:58.496Z,12.65
2022-07-30T04:16:36.999Z,7.20
2022-07-30T04:18:15.604Z,10.02
2022-07-30T04:20:46.087Z,7.25
2022-07-30T04:23:13.243Z,9.27
2022-07-30T04:25:43.671Z,9.30
2022-07-30T04:28:11.880Z,4.32
2022-07-30T04:30:38.821Z,11.30
2022-07-30T04:33:05.766Z,7.38
2022-07-30T04:35:51.408Z,8.55
2022-07-30T04:38:36.653Z,8.45
2022-07-30T04:41:03.589Z,8.20
2022-07-30T04:43:43.470Z,10.57
2022-07-30T04:46:10.242Z,11.15
2022-07-30T04:48:36.964Z,9.57
2022-07-30T04:51:26.487Z,9.02
2022-07-30T04:53:54.774Z,10.48
2022-07-30T04:56:23.828Z,7.22
2022-07-30T04:58:51.974Z,7.18
2022-07-30T05:01:24.164Z,6.55
2022-07-30T05:04:06.574Z,4.97
2022-07-30T05:06:35.039Z,9.27
2022-07-30T05:09:01.998Z,5.90
2022-07-30T05:11:29.018Z,6.90
2022-07-30T05:13:55.949Z,6.63
2022-07-30T05:16:25.129Z,9.52
2022-07-30T05:18:54.836Z,6.00
2022-07-30T05:21:21.501Z,8.48
2022-07-30T05:23:50.161Z,8.52
2022-07-30T05:26:38.367Z,7.63
2022-07-30T05:29:07.308Z,8.65
2022-07-30T05:31:48.498Z,7.97
2022-07-30T05:34:16.212Z,6.35
2022-07-30T05:36:45.478Z,9.13
2022-07-30T05:39:16.303Z,5.07
2022-07-30T05:41:52.091Z,7.35
2022-07-30T05:44:24.216Z,9.07
2022-07-30T05:46:52.356Z,9.80
2022-07-30T05:49:19.563Z,4.55
2022-07-30T05:51:46.455Z,5.93
2022-07-30T05:54:13.409Z,8.55
2022-07-30T05:56:58.702Z,15.35
2022-07-30T05:59:37.591Z,9.70
2022-07-30T06:02:14.793Z,10.85
2022-07-30T06:04:53.178Z,8.75
2022-07-30T06:07:20.879Z,7.03
2022-07-30T06:09:49.927Z,8.27
2022-07-30T06:12:17.277Z,9.55
2022-07-30T06:14:44.074Z,10.07
2022-07-30T06:17:15.819Z,13.82
2022-07-30T06:20:13.816Z,10.30
2022-07-30T06:22:52.228Z,10.05
2022-07-30T06:25:34.983Z,7.53
2022-07-30T06:28:21.330Z,11.95
2022-07-30T06:30:53.005Z,12.32
2022-07-30T06:33:22.263Z,8.05
2022-07-30T06:35:51.618Z,8.18
2022-07-30T06:38:21.705Z,7.50
2022-07-30T06:41:00.514Z,10.00
2022-07-30T06:43:55.284Z,15.00
2022-07-30T06:46:41.168Z,7.57
2022-07-30T06:49:11.495Z,12.25
2022-07-30T06:51:38.345Z,9.00
2022-07-30T06:54:05.071Z,12.48
2022-07-30T06:56:50.345Z,14.10
2022-07-30T06:59:17.057Z,13.60
2022-07-30T07:01:54.080Z,15.00
2022-07-30T07:04:21.550Z,15.48
2022-07-30T07:06:48.364Z,13.65
2022-07-30T07:09:23.596Z,10.85
2022-07-30T07:12:07.006Z,12.73
2022-07-30T07:14:36.106Z,13.48
2022-07-30T07:17:03.683Z,10.95
2022-07-30T07:20:00.807Z,15.82
2022-07-30T07:22:31.716Z,16.95
2022-07-30T07:24:58.435Z,12.95
2022-07-30T07:27:28.532Z,17.77
2022-07-30T07:30:01.552Z,15.48
2022-07-30T07:32:35.286Z,18.10
2022-07-30T07:35:02.880Z,15.57
2022-07-30T07:37:30.360Z,14.93
2022-07-30T07:40:01.701Z,13.07
2022-07-30T07:42:31.431Z,13.60
2022-07-30T07:44:58.964Z,10.73
2022-07-30T07:47:28.918Z,11.00
2022-07-30T07:50:07.297Z,24.52
2022-07-30T07:52:34.044Z,12.82
2022-07-30T07:55:00.875Z,10.38
2022-07-30T07:57:30.055Z,9.25
2022-07-30T08:00:00.433Z,16.33
2022-07-30T08:02:31.095Z,14.35
2022-07-30T08:05:05.264Z,19.40
2022-07-30T08:07:42.523Z,14.23
2022-07-30T08:10:29.553Z,15.97
2022-07-30T08:13:04.085Z,11.43
2022-07-30T08:15:49.848Z,12.13
2022-07-30T08:18:45.595Z,13.40
2022-07-30T08:21:19.314Z,9.55
2022-07-30T08:23:46.055Z,10.85
2022-07-30T08:26:12.856Z,16.20
2022-07-30T08:28:39.602Z,11.82
2022-07-30T08:31:07.503Z,9.60
2022-07-30T08:33:34.467Z,14.20
2022-07-30T08:36:04.397Z,9.10
2022-07-30T08:38:36.953Z,8.98
2022-07-30T08:41:03.846Z,8.52
2022-07-30T08:43:31.554Z,11.73
2022-07-30T08:45:59.057Z,7.05
2022-07-30T08:48:47.100Z,7.47
2022-07-30T08:51:17.727Z,9.98
2022-07-30T08:54:04.797Z,9.80
2022-07-30T08:56:32.646Z,6.03
2022-07-30T08:59:00.630Z,6.57
2022-07-30T09:01:27.750Z,8.02
2022-07-30T09:03:56.796Z,5.18
2022-07-30T09:06:25.642Z,12.63
2022-07-30T09:08:52.428Z,4.13
2022-07-30T09:11:19.244Z,4.30
2022-07-30T09:13:46.020Z,10.05
2022-07-30T09:16:24.096Z,3.10
2022-07-30T09:18:52.746Z,11.20
2022-07-30T09:21:26.383Z,7.20
2022-07-30T09:24:13.694Z,8.65
2022-07-30T09:27:05.240Z,10.60
2022-07-30T09:29:59.323Z,8.15
2022-07-30T09:32:53.488Z,2.80
2022-07-30T09:35:56.247Z,3.92
2022-07-30T09:38:44.844Z,9.48
2022-07-30T09:41:40.113Z,2.03
2022-07-30T09:44:23.887Z,5.75
2022-07-30T09:46:53.559Z,4.78
2022-07-30T09:49:28.687Z,3.30
2022-07-30T09:51:57.573Z,3.78
2022-07-30T09:54:51.530Z,4.40
2022-07-30T09:57:26.555Z,7.18
2022-07-30T10:00:24.060Z,6.13
2022-07-30T10:03:34.111Z,5.47
2022-07-30T10:06:33.437Z,5.40
2022-07-30T10:09:02.361Z,5.15
2022-07-30T10:14:09.454Z,6.20
2022-07-30T10:16:36.305Z,3.67
2022-07-30T10:19:03.770Z,2.83
2022-07-30T10:21:57.354Z,8.07
2022-07-30T10:24:46.048Z,2.40
2022-07-30T10:27:32.256Z,7.13
2022-07-30T10:30:28.098Z,5.00
2022-07-30T10:32:58.261Z,6.72
2022-07-30T10:35:31.114Z,4.45
2022-07-30T10:38:09.357Z,5.85
2022-07-30T10:40:58.672Z,5.72
2022-07-30T10:43:55.156Z,6.13
2022-07-30T10:46:27.077Z,2.10
2022-07-30T10:48:55.602Z,4.80
2022-07-30T10:51:43.638Z,2.92
2022-07-30T10:54:39.784Z,1.75
2022-07-30T10:57:11.650Z,6.32
2022-07-30T10:59:58.667Z,4.97
2022-07-30T11:02:34.850Z,6.07
2022-07-30T11:05:18.616Z,5.13
2022-07-30T11:07:54.543Z,4.07
2022-07-30T11:10:36.409Z,5.57
2022-07-30T11:13:04.065Z,4.28
2022-07-30T11:15:55.779Z,3.93
2022-07-30T11:18:26.835Z,4.63
2022-07-30T11:21:16.657Z,2.22
2022-07-30T11:23:45.811Z,3.27
2022-07-30T11:26:43.762Z,7.15
2022-07-30T11:29:36.183Z,1.30
2022-07-30T11:32:28.235Z,1.67
2022-07-30T11:38:04.976Z,7.40
2022-07-30T11:40:55.138Z,9.68
2022-07-30T11:43:35.167Z,4.43
2022-07-30T11:46:16.291Z,4.82
2022-07-30T11:49:08.355Z,2.45
2022-07-30T11:51:42.880Z,3.47
2022-07-30T11:54:12.829Z,4.07
2022-07-30T11:56:54.402Z,1.80
2022-07-30T11:59:21.183Z,6.68
2022-07-30T12:01:53.008Z,3.92
2022-07-30T12:04:20.130Z,6.78
2022-07-30T12:06:47.930Z,7.22
2022-07-30T12:09:28.718Z,5.55
2022-07-30T12:11:57.268Z,1.88
2022-07-30T12:14:24.428Z,4.63
2022-07-30T12:16:53.528Z,4.97
2022-07-30T12:19:20.449Z,6.28
2022-07-30T12:21:50.907Z,5.32
2022-07-30T12:24:25.307Z,2.35
2022-07-30T12:26:52.081Z,2.92
2022-07-30T12:29:18.952Z,7.97
2022-07-30T12:31:46.231Z,3.22
2022-07-30T12:34:23.946Z,3.78
2022-07-30T12:36:50.644Z,5.25
2022-07-30T12:39:22.848Z,4.78
2022-07-30T12:41:51.403Z,3.13
2022-07-30T12:44:37.732Z,3.88
2022-07-30T12:47:06.533Z,8.70
2022-07-30T12:49:37.817Z,3.05
2022-07-30T12:52:48.379Z,9.75
2022-07-30T12:55:15.238Z,2.58
2022-07-30T12:58:08.424Z,9.07
2022-07-30T13:00:45.047Z,3.40
2022-07-30T13:03:23.442Z,3.30
2022-07-30T13:05:55.158Z,3.58
2022-07-30T13:08:53.405Z,1.55
2022-07-30T13:11:23.108Z,4.03
2022-07-30T13:13:51.230Z,1.00
2022-07-30T13:16:19.365Z,6.50
2022-07-30T13:18:46.638Z,1.55
2022-07-30T13:21:13.868Z,3.03
2022-07-30T13:23:42.191Z,1.35
2022-07-30T13:26:09.891Z,0.45
2022-07-30T13:28:36.760Z,3.50
2022-07-30T13:31:04.031Z,2.13
2022-07-30T13:33:31.075Z,1.63
2022-07-30T13:35:57.816Z,0.88
2022-07-30T13:38:24.611Z,1.92
2022-07-30T13:40:53.114Z,3.95
2022-07-30T13:43:20.270Z,1.77
2022-07-30T13:45:47.396Z,4.82
2022-07-30T13:48:14.410Z,5.85
2022-07-30T13:50:41.826Z,8.63
2022-07-30T13:53:09.070Z,5.35
2022-07-30T13:55:37.347Z,1.50
2022-07-30T13:58:04.614Z,2.10
2022-07-30T14:00:34.242Z,2.78
2022-07-30T14:03:02.663Z,0.30
2022-07-30T14:05:29.617Z,0.73
2022-07-30T14:07:57.159Z,3.70
2022-07-30T14:10:24.244Z,2.17
2022-07-30T14:12:54.958Z,3.78
2022-07-30T14:15:22.681Z,1.80
2022-07-30T14:17:56.577Z,1.95
2022-07-30T14:20:24.092Z,0.93
2022-07-30T14:22:50.829Z,2.60
2022-07-30T14:25:17.647Z,1.40
2022-07-30T14:27:44.995Z,3.40
2022-07-30T14:30:14.924Z,3.42
2022-07-30T14:32:42.148Z,2.63
2022-07-30T14:35:10.528Z,1.77
2022-07-30T14:37:38.232Z,4.65
2022-07-30T14:40:06.641Z,2.03
2022-07-30T14:42:33.561Z,3.17
2022-07-30T14:45:00.305Z,1.90
2022-07-30T14:47:27.004Z,1.13
2022-07-30T14:49:54.287Z,0.57
2022-07-30T14:52:21.019Z,2.00
2022-07-30T14:54:47.643Z,4.30
2022-07-30T14:57:14.340Z,5.53
2022-07-30T14:59:40.931Z,0.90
2022-07-30T15:02:10.901Z,2.58
2022-07-30T15:04:37.691Z,1.27
2022-07-30T15:07:04.438Z,6.03
2022-07-30T15:12:21.737Z,0.35
2022-07-30T15:14:49.866Z,1.75
2022-07-30T15:17:16.592Z,0.90
2022-07-30T15:19:50.090Z,4.43
2022-07-30T15:22:21.099Z,3.00
2022-07-30T15:24:48.860Z,4.70
2022-07-30T15:27:15.658Z,0.57
2022-07-30T15:29:42.787Z,5.38
2022-07-30T15:32:09.475Z,0.20
2022-07-30T15:34:36.157Z,1.77
2022-07-30T15:37:04.152Z,2.05
2022-07-30T15:39:33.434Z,0.80
2022-07-30T15:42:01.794Z,0.35
2022-07-30T15:44:29.156Z,2.20
2022-07-30T15:46:55.896Z,0.52
2022-07-30T15:49:22.835Z,6.25
2022-07-30T15:51:50.438Z,2.30
2022-07-30T15:54:22.461Z,2.58
2022-07-30T15:56:51.334Z,5.30
2022-07-30T15:59:18.456Z,2.03
2022-07-30T16:01:45.326Z,2.10
2022-07-30T16:04:19.637Z,1.10
2022-07-30T16:06:47.978Z,1.75
2022-07-30T16:09:16.051Z,2.90
2022-07-30T16:11:43.016Z,0.82
2022-07-30T16:14:10.395Z,2.55
2022-07-30T16:16:37.572Z,2.05
2022-07-30T16:19:04.412Z,1.17
2022-07-30T16:21:31.136Z,0.98
2022-07-30T16:23:57.810Z,0.80
2022-07-30T16:26:24.532Z,1.80
2022-07-30T16:28:51.504Z,4.07
2022-07-30T16:31:18.126Z,1.60
2022-07-30T16:33:45.105Z,3.50
2022-07-30T16:36:14.277Z,1.35
2022-07-30T16:38:41.296Z,4.15
2022-07-30T16:41:13.217Z,2.83
2022-07-30T16:43:40.742Z,2.03
2022-07-30T16:46:07.493Z,2.38
2022-07-30T16:48:34.227Z,2.05
2022-07-30T16:51:00.945Z,3.22
2022-07-30T16:53:28.431Z,2.15
2022-07-30T16:55:57.020Z,5.97
2022-07-30T16:58:30.739Z,3.45
2022-07-30T17:00:58.159Z,4.70
2022-07-30T17:03:25.504Z,3.15
2022-07-30T17:05:52.493Z,3.22
2022-07-30T17:08:19.475Z,2.50
2022-07-30T17:10:52.503Z,3.47
2022-07-30T17:13:19.471Z,3.30
2022-07-30T17:15:46.966Z,6.10
2022-07-30T17:18:14.015Z,9.55
2022-07-30T17:20:40.800Z,9.43
2022-07-30T17:23:07.797Z,5.93
2022-07-30T17:25:34.456Z,7.07
2022-07-30T17:28:01.804Z,3.63
2022-07-30T17:30:29.471Z,7.45
2022-07-30T17:32:56.453Z,4.97
2022-07-30T17:35:24.667Z,6.22
2022-07-30T17:37:51.705Z,3.10
2022-07-30T17:40:28.739Z,2.33
2022-07-30T17:45:33.115Z,5.75
2022-07-30T17:48:01.631Z,10.23
2022-07-30T17:50:29.650Z,1.95
2022-07-30T17:52:56.484Z,11.93
2022-07-30T17:55:23.397Z,3.70
2022-07-30T17:57:50.039Z,3.03
2022-07-30T18:00:16.940Z,8.93
2022-07-30T18:02:43.615Z,2.00
2022-07-30T18:05:10.992Z,2.95
2022-07-30T18:07:37.690Z,1.80
2022-07-30T18:10:04.694Z,2.20
2022-07-30T18:12:31.467Z,2.97
2022-07-30T18:14:59.119Z,2.35
2022-07-30T18:17:26.270Z,10.20
2022-07-30T18:19:53.473Z,3.47
2022-07-30T18:22:29.567Z,4.65
2022-07-30T18:24:57.358Z,2.78
2022-07-30T18:27:24.067Z,7.97
2022-07-30T18:29:50.748Z,4.28
2022-07-30T18:32:17.538Z,1.48
2022-07-30T18:34:44.260Z,3.03
2022-07-30T18:37:10.979Z,4.90
2022-07-30T18:39:38.947Z,3.47
2022-07-30T18:42:06.440Z,1.35
2022-07-30T18:44:33.580Z,3.78
2022-07-30T18:47:00.534Z,5.15
2022-07-30T18:49:36.728Z,1.27
2022-07-30T18:52:05.604Z,2.83
2022-07-30T18:54:32.545Z,1.95
2022-07-30T18:56:59.231Z,1.60
2022-07-30T18:59:25.885Z,5.05
2022-07-30T19:01:52.585Z,0.88
2022-07-30T19:04:19.440Z,1.98
2022-07-30T19:06:46.465Z,1.63
2022-07-30T19:09:17.689Z,4.90
2022-07-30T19:11:47.910Z,4.13
2022-07-30T19:14:14.884Z,3.05
2022-07-30T19:16:42.912Z,3.25
2022-07-30T19:19:10.361Z,6.28
2022-07-30T19:21:37.072Z,1.33
2022-07-30T19:24:04.919Z,1.20
2022-07-30T19:26:31.710Z,4.13
2022-07-30T19:28:58.676Z,7.15
2022-07-30T19:31:26.563Z,5.60
2022-07-30T19:33:53.338Z,2.05
2022-07-30T19:36:22.791Z,3.50
2022-07-30T19:38:50.140Z,5.15
2022-07-30T19:41:16.999Z,6.18
2022-07-30T19:43:57.828Z,2.92
2022-07-30T19:46:25.167Z,5.22
2022-07-30T19:48:52.034Z,2.75
2022-07-30T19:51:20.444Z,5.72
2022-07-30T19:53:48.038Z,1.70
2022-07-30T19:56:14.907Z,3.03
2022-07-30T19:58:41.854Z,2.50
2022-07-30T20:01:14.399Z,2.95
2022-07-30T20:03:41.884Z,1.65
2022-07-30T20:06:15.377Z,1.67
2022-07-30T20:08:44.800Z,2.33
2022-07-30T20:11:20.924Z,3.55
2022-07-30T20:13:59.162Z,3.70
2022-07-30T20:16:26.071Z,2.90
2022-07-30T20:18:54.549Z,4.75
2022-07-30T20:21:21.254Z,1.92
2022-07-30T20:24:08.162Z,4.32
2022-07-30T20:26:35.763Z,1.85
2022-07-30T20:29:02.661Z,5.55
2022-07-30T20:31:36.247Z,3.17
2022-07-30T20:34:04.826Z,1.75
2022-07-30T20:36:43.365Z,4.22
2022-07-30T20:39:13.371Z,4.68
2022-07-30T20:41:45.748Z,2.92
2022-07-30T20:44:23.506Z,1.17
2022-07-30T20:46:52.699Z,1.98
2022-07-30T20:49:24.184Z,1.77
2022-07-30T20:52:00.844Z,1.58
2022-07-30T20:54:28.128Z,2.22
2022-07-30T20:56:56.932Z,5.32
2022-07-30T20:59:27.056Z,1.30
2022-07-30T21:01:55.835Z,1.83
2022-07-30T21:04:25.311Z,1.75
2022-07-30T21:09:49.684Z,2.53
2022-07-30T21:12:19.314Z,2.15
2022-07-30T21:14:59.817Z,5.55
2022-07-30T21:17:26.632Z,9.63
2022-07-30T21:19:55.127Z,2.88
2022-07-30T21:22:22.408Z,2.00
2022-07-30T21:24:50.759Z,2.90
2022-07-30T21:27:19.098Z,3.75
2022-07-30T21:29:45.943Z,7.13
2022-07-30T21:32:13.314Z,4.40
2022-07-30T21:34:42.370Z,7.60
2022-07-30T21:37:09.825Z,2.05
2022-07-30T21:39:39.952Z,2.05
2022-07-30T21:42:10.541Z,5.40
2022-07-30T21:44:38.184Z,4.78
2022-07-30T21:47:10.468Z,4.68
2022-07-30T21:49:39.570Z,4.13
2022-07-30T21:52:08.926Z,5.80
2022-07-30T21:54:48.414Z,3.42
2022-07-30T22:00:14.560Z,2.03
2022-07-30T22:02:53.043Z,3.28
2022-07-30T22:08:07.611Z,7.88
2022-07-30T22:10:37.958Z,3.53
2022-07-30T22:13:08.912Z,3.10
2022-07-30T22:15:36.439Z,3.88
2022-07-30T22:18:04.158Z,3.63
2022-07-30T22:20:31.755Z,3.72
2022-07-30T22:23:00.508Z,3.55
2022-07-30T22:25:39.807Z,3.78
2022-07-30T22:28:12.947Z,6.05
2022-07-30T22:30:41.208Z,11.20
2022-07-30T22:33:19.249Z,5.18
2022-07-30T22:35:49.679Z,3.25
2022-07-30T22:38:19.575Z,5.03
2022-07-30T22:40:46.552Z,1.67
2022-07-30T22:43:15.983Z,8.18
2022-07-30T22:45:47.637Z,5.25
2022-07-30T22:48:16.792Z,9.18
2022-07-30T22:50:43.539Z,2.53
2022-07-30T22:55:58.664Z,1.33
2022-07-30T22:58:26.431Z,2.08
2022-07-30T23:00:53.548Z,2.53
2022-07-30T23:03:21.135Z,3.28
2022-07-30T23:05:55.090Z,2.42
2022-07-30T23:11:10.108Z,5.15
2022-07-30T23:12:30.688Z,3.53
2022-07-30T23:12:30.999Z,5.30
2022-07-30T23:12:32.448Z,2.25
2022-07-30T23:12:33.009Z,1.92
2022-07-30T23:13:38.643Z,5.90
2022-07-30T23:16:06.839Z,6.43
2022-07-30T23:18:35.285Z,3.00
2022-07-30T23:21:03.156Z,7.20
2022-07-30T23:23:33.900Z,4.60
2022-07-30T23:26:01.975Z,3.35
2022-07-30T23:28:28.739Z,5.30
2022-07-30T23:30:55.837Z,4.60
2022-07-30T23:33:22.543Z,3.50
2022-07-30T23:35:49.329Z,2.33
2022-07-30T23:38:16.065Z,5.50
2022-07-30T23:40:42.708Z,4.22
2022-07-30T23:43:09.521Z,6.15
2022-07-30T23:45:36.193Z,3.92
2022-07-30T23:48:03.563Z,3.20
2022-07-30T23:50:34.318Z,1.85
2022-07-30T23:53:01.992Z,0.90
2022-07-30T23:55:30.971Z,2.47
2022-07-30T23:57:58.711Z,3.30
